sensor_id;sensor_type;location;lat;lon;timestamp;temperature;humidity
25280;DHT22;13225;47.804;12.116;2022-09-28T00:01:27;8.80;99.90
25280;DHT22;13225;47.804;12.116;2022-09-28T00:03:55;8.80;99.90
25280;DHT22;13225;47.804;12.116;2022-09-28T00:06:25;8.70;99.90
25280;DHT22;13225;47.804;12.116;2022-09-28T00:08:51;8.70;99.90
25280;DHT22;13225;47.804;12.116;2022-09-28T00:11:18;8.80;99.90
25280;DHT22;13225;47.804;12.116;2022-09-28T00:13:51;8.70;99.90
25280;DHT22;13225;47.804;12.116;2022-09-28T00:16:20;8.80;99.90
25280;DHT22;13225;47.804;12.116;2022-09-28T00:18:46;8.80;99.90
25280;DHT22;13225;47.804;12.116;2022-09-28T00:21:17;8.80;99.90
25280;DHT22;13225;47.804;12.116;2022-09-28T00:23:43;8.80;99.90
25280;DHT22;13225;47.804;12.116;2022-09-28T00:26:29;8.90;99.90
25280;DHT22;13225;47.804;12.116;2022-09-28T00:28:57;8.90;99.90
25280;DHT22;13225;47.804;12.116;2022-09-28T00:31:27;8.90;99.90
25280;DHT22;13225;47.804;12.116;2022-09-28T00:33:54;8.90;99.90
25280;DHT22;13225;47.804;12.116;2022-09-28T00:36:25;8.90;99.90
25280;DHT22;13225;47.804;12.116;2022-09-28T00:38:56;9.00;99.90
25280;DHT22;13225;47.804;12.116;2022-09-28T00:41:23;9.00;99.90
25280;DHT22;13225;47.804;12.116;2022-09-28T00:43:49;8.90;99.90
25280;DHT22;13225;47.804;12.116;2022-09-28T00:46:19;8.90;99.90
25280;DHT22;13225;47.804;12.116;2022-09-28T00:49:01;8.90;99.90
25280;DHT22;13225;47.804;12.116;2022-09-28T00:51:29;8.90;99.90
25280;DHT22;13225;47.804;12.116;2022-09-28T00:53:57;8.90;99.90
25280;DHT22;13225;47.804;12.116;2022-09-28T00:56:27;8.90;99.90
25280;DHT22;13225;47.804;12.116;2022-09-28T00:58:53;8.90;99.90
25280;DHT22;13225;47.804;12.116;2022-09-28T01:01:20;8.80;99.90
25280;DHT22;13225;47.804;12.116;2022-09-28T01:03:47;8.80;99.90
25280;DHT22;13225;47.804;12.116;2022-09-28T01:06:19;8.80;99.90
25280;DHT22;13225;47.804;12.116;2022-09-28T01:08:46;8.90;99.90
25280;DHT22;13225;47.804;12.116;2022-09-28T01:11:12;8.90;99.90
25280;DHT22;13225;47.804;12.116;2022-09-28T01:13:39;8.80;99.90
25280;DHT22;13225;47.804;12.116;2022-09-28T01:18:58;8.80;99.90
25280;DHT22;13225;47.804;12.116;2022-09-28T01:21:26;8.80;99.90
25280;DHT22;13225;47.804;12.116;2022-09-28T01:24:13;8.80;99.90
25280;DHT22;13225;47.804;12.116;2022-09-28T01:29:16;8.80;99.90
25280;DHT22;13225;47.804;12.116;2022-09-28T01:31:50;8.80;99.90
25280;DHT22;13225;47.804;12.116;2022-09-28T01:34:40;8.90;99.90
25280;DHT22;13225;47.804;12.116;2022-09-28T01:37:10;8.90;99.90
25280;DHT22;13225;47.804;12.116;2022-09-28T01:39:40;8.90;99.90
25280;DHT22;13225;47.804;12.116;2022-09-28T01:42:13;8.90;99.90
25280;DHT22;13225;47.804;12.116;2022-09-28T01:44:43;8.90;99.90
25280;DHT22;13225;47.804;12.116;2022-09-28T01:47:12;8.90;99.90
25280;DHT22;13225;47.804;12.116;2022-09-28T01:49:46;9.00;99.90
25280;DHT22;13225;47.804;12.116;2022-09-28T01:52:24;9.00;99.90
25280;DHT22;13225;47.804;12.116;2022-09-28T01:55:09;8.90;99.90
25280;DHT22;13225;47.804;12.116;2022-09-28T01:57:47;8.90;99.90
25280;DHT22;13225;47.804;12.116;2022-09-28T02:00:16;8.90;99.90
25280;DHT22;13225;47.804;12.116;2022-09-28T02:02:47;8.90;99.90
25280;DHT22;13225;47.804;12.116;2022-09-28T02:05:20;8.90;99.90
25280;DHT22;13225;47.804;12.116;2022-09-28T02:07:50;8.90;99.90
25280;DHT22;13225;47.804;12.116;2022-09-28T02:10:24;8.80;99.90
25280;DHT22;13225;47.804;12.116;2022-09-28T02:15:35;8.90;99.90
25280;DHT22;13225;47.804;12.116;2022-09-28T02:18:02;8.90;99.90
25280;DHT22;13225;47.804;12.116;2022-09-28T02:20:29;8.90;99.90
25280;DHT22;13225;47.804;12.116;2022-09-28T02:22:57;8.90;99.90
25280;DHT22;13225;47.804;12.116;2022-09-28T02:25:40;8.80;99.90
25280;DHT22;13225;47.804;12.116;2022-09-28T02:28:10;8.80;99.90
25280;DHT22;13225;47.804;12.116;2022-09-28T02:30:37;8.80;99.90
25280;DHT22;13225;47.804;12.116;2022-09-28T02:33:21;8.80;99.90
25280;DHT22;13225;47.804;12.116;2022-09-28T02:35:47;8.80;99.90
25280;DHT22;13225;47.804;12.116;2022-09-28T02:38:14;8.80;99.90
25280;DHT22;13225;47.804;12.116;2022-09-28T02:40:43;8.80;99.90
25280;DHT22;13225;47.804;12.116;2022-09-28T02:43:25;8.80;99.90
25280;DHT22;13225;47.804;12.116;2022-09-28T02:48:45;8.90;99.90
25280;DHT22;13225;47.804;12.116;2022-09-28T02:51:17;8.90;99.90
25280;DHT22;13225;47.804;12.116;2022-09-28T03:05:28;8.60;99.90
25280;DHT22;13225;47.804;12.116;2022-09-28T03:07:49;8.60;99.90
25280;DHT22;13225;47.804;12.116;2022-09-28T03:10:38;8.50;99.90
25280;DHT22;13225;47.804;12.116;2022-09-28T03:13:05;8.50;99.90
25280;DHT22;13225;47.804;12.116;2022-09-28T03:15:33;8.40;99.90
25280;DHT22;13225;47.804;12.116;2022-09-28T03:17:59;8.40;99.90
25280;DHT22;13225;47.804;12.116;2022-09-28T03:20:27;8.30;99.90
25280;DHT22;13225;47.804;12.116;2022-09-28T03:22:53;8.30;99.90
25280;DHT22;13225;47.804;12.116;2022-09-28T03:25:19;8.30;99.90
25280;DHT22;13225;47.804;12.116;2022-09-28T03:27:45;8.20;99.90
25280;DHT22;13225;47.804;12.116;2022-09-28T03:30:11;8.30;99.90
25280;DHT22;13225;47.804;12.116;2022-09-28T03:32:37;8.20;99.90
25280;DHT22;13225;47.804;12.116;2022-09-28T03:35:05;8.20;99.90
25280;DHT22;13225;47.804;12.116;2022-09-28T03:37:31;8.20;99.90
25280;DHT22;13225;47.804;12.116;2022-09-28T03:39:56;8.20;99.90
25280;DHT22;13225;47.804;12.116;2022-09-28T03:42:22;8.20;99.90
25280;DHT22;13225;47.804;12.116;2022-09-28T03:44:48;8.20;99.90
25280;DHT22;13225;47.804;12.116;2022-09-28T03:47:13;8.20;99.90
25280;DHT22;13225;47.804;12.116;2022-09-28T03:49:41;8.10;99.90
25280;DHT22;13225;47.804;12.116;2022-09-28T03:52:08;8.10;99.90
25280;DHT22;13225;47.804;12.116;2022-09-28T03:54:34;8.10;99.90
25280;DHT22;13225;47.804;12.116;2022-09-28T03:57:00;8.10;99.90
25280;DHT22;13225;47.804;12.116;2022-09-28T03:59:26;8.10;99.90
25280;DHT22;13225;47.804;12.116;2022-09-28T04:01:52;8.20;99.90
25280;DHT22;13225;47.804;12.116;2022-09-28T04:04:17;8.30;99.90
25280;DHT22;13225;47.804;12.116;2022-09-28T04:06:43;8.40;99.90
25280;DHT22;13225;47.804;12.116;2022-09-28T04:09:09;8.50;99.90
25280;DHT22;13225;47.804;12.116;2022-09-28T04:11:35;8.60;99.90
25280;DHT22;13225;47.804;12.116;2022-09-28T04:14:01;8.70;99.90
25280;DHT22;13225;47.804;12.116;2022-09-28T04:16:26;8.80;99.90
25280;DHT22;13225;47.804;12.116;2022-09-28T04:18:52;8.90;99.90
25280;DHT22;13225;47.804;12.116;2022-09-28T04:21:18;9.00;99.90
25280;DHT22;13225;47.804;12.116;2022-09-28T04:23:45;9.10;99.90
25280;DHT22;13225;47.804;12.116;2022-09-28T04:26:21;9.20;99.90
25280;DHT22;13225;47.804;12.116;2022-09-28T04:28:47;9.30;99.90
25280;DHT22;13225;47.804;12.116;2022-09-28T04:31:49;9.40;99.90
25280;DHT22;13225;47.804;12.116;2022-09-28T04:34:20;9.50;99.90
25280;DHT22;13225;47.804;12.116;2022-09-28T04:36:47;9.30;99.90
25280;DHT22;13225;47.804;12.116;2022-09-28T04:39:14;9.20;99.90
25280;DHT22;13225;47.804;12.116;2022-09-28T04:41:41;9.20;99.90
25280;DHT22;13225;47.804;12.116;2022-09-28T04:44:07;9.20;99.90
25280;DHT22;13225;47.804;12.116;2022-09-28T04:46:32;9.20;99.90
25280;DHT22;13225;47.804;12.116;2022-09-28T04:48:58;9.20;99.90
25280;DHT22;13225;47.804;12.116;2022-09-28T04:51:24;9.20;99.90
25280;DHT22;13225;47.804;12.116;2022-09-28T04:53:50;9.20;99.90
25280;DHT22;13225;47.804;12.116;2022-09-28T04:56:16;9.20;99.90
25280;DHT22;13225;47.804;12.116;2022-09-28T04:58:42;9.10;99.90
25280;DHT22;13225;47.804;12.116;2022-09-28T05:01:14;9.00;99.90
25280;DHT22;13225;47.804;12.116;2022-09-28T05:03:41;9.00;99.90
25280;DHT22;13225;47.804;12.116;2022-09-28T05:06:07;9.00;99.90
25280;DHT22;13225;47.804;12.116;2022-09-28T05:08:33;8.90;99.90
25280;DHT22;13225;47.804;12.116;2022-09-28T05:11:05;8.90;99.90
25280;DHT22;13225;47.804;12.116;2022-09-28T05:13:32;8.70;99.90
25280;DHT22;13225;47.804;12.116;2022-09-28T05:16:00;8.70;99.90
25280;DHT22;13225;47.804;12.116;2022-09-28T05:18:26;8.70;99.90
25280;DHT22;13225;47.804;12.116;2022-09-28T05:20:52;8.70;99.90
25280;DHT22;13225;47.804;12.116;2022-09-28T05:23:18;8.70;99.90
25280;DHT22;13225;47.804;12.116;2022-09-28T05:25:43;8.60;99.90
25280;DHT22;13225;47.804;12.116;2022-09-28T05:28:12;8.60;99.90
25280;DHT22;13225;47.804;12.116;2022-09-28T05:30:39;8.70;99.90
25280;DHT22;13225;47.804;12.116;2022-09-28T05:33:04;8.60;99.90
25280;DHT22;13225;47.804;12.116;2022-09-28T05:35:30;8.60;99.90
25280;DHT22;13225;47.804;12.116;2022-09-28T05:37:57;8.60;99.90
25280;DHT22;13225;47.804;12.116;2022-09-28T05:40:26;8.70;99.90
25280;DHT22;13225;47.804;12.116;2022-09-28T05:42:52;8.70;99.90
25280;DHT22;13225;47.804;12.116;2022-09-28T05:45:18;8.80;99.90
25280;DHT22;13225;47.804;12.116;2022-09-28T05:47:43;8.90;99.90
25280;DHT22;13225;47.804;12.116;2022-09-28T05:50:10;8.90;99.90
25280;DHT22;13225;47.804;12.116;2022-09-28T05:52:37;8.80;99.90
25280;DHT22;13225;47.804;12.116;2022-09-28T05:55:04;8.90;99.90
25280;DHT22;13225;47.804;12.116;2022-09-28T05:57:30;8.90;99.90
25280;DHT22;13225;47.804;12.116;2022-09-28T05:59:55;8.90;99.90
25280;DHT22;13225;47.804;12.116;2022-09-28T06:02:21;9.00;99.90
25280;DHT22;13225;47.804;12.116;2022-09-28T06:04:47;9.00;99.90
25280;DHT22;13225;47.804;12.116;2022-09-28T06:07:16;9.00;99.90
25280;DHT22;13225;47.804;12.116;2022-09-28T06:09:41;9.10;99.90
25280;DHT22;13225;47.804;12.116;2022-09-28T06:12:07;9.10;99.90
25280;DHT22;13225;47.804;12.116;2022-09-28T06:14:33;9.20;99.90
25280;DHT22;13225;47.804;12.116;2022-09-28T06:16:59;9.20;99.90
25280;DHT22;13225;47.804;12.116;2022-09-28T06:19:24;9.20;99.90
25280;DHT22;13225;47.804;12.116;2022-09-28T06:21:50;9.30;99.90
25280;DHT22;13225;47.804;12.116;2022-09-28T06:24:16;9.20;99.90
25280;DHT22;13225;47.804;12.116;2022-09-28T06:26:41;9.10;99.90
25280;DHT22;13225;47.804;12.116;2022-09-28T06:29:07;9.10;99.90
25280;DHT22;13225;47.804;12.116;2022-09-28T06:31:32;9.10;99.90
25280;DHT22;13225;47.804;12.116;2022-09-28T06:33:58;9.10;99.90
25280;DHT22;13225;47.804;12.116;2022-09-28T06:36:28;9.10;99.90
25280;DHT22;13225;47.804;12.116;2022-09-28T06:38:55;9.00;99.90
25280;DHT22;13225;47.804;12.116;2022-09-28T06:41:21;9.10;99.90
25280;DHT22;13225;47.804;12.116;2022-09-28T06:43:47;9.10;99.90
25280;DHT22;13225;47.804;12.116;2022-09-28T06:46:13;9.20;99.90
25280;DHT22;13225;47.804;12.116;2022-09-28T06:48:38;9.10;99.90
25280;DHT22;13225;47.804;12.116;2022-09-28T06:51:05;9.00;99.90
25280;DHT22;13225;47.804;12.116;2022-09-28T06:53:31;9.10;99.90
25280;DHT22;13225;47.804;12.116;2022-09-28T06:55:57;8.90;99.90
25280;DHT22;13225;47.804;12.116;2022-09-28T06:58:23;9.00;99.90
25280;DHT22;13225;47.804;12.116;2022-09-28T07:00:52;8.90;99.90
25280;DHT22;13225;47.804;12.116;2022-09-28T07:03:19;8.90;99.90
25280;DHT22;13225;47.804;12.116;2022-09-28T07:05:48;8.90;99.90
25280;DHT22;13225;47.804;12.116;2022-09-28T07:08:16;8.90;99.90
25280;DHT22;13225;47.804;12.116;2022-09-28T07:10:45;9.00;99.90
25280;DHT22;13225;47.804;12.116;2022-09-28T07:13:12;9.00;99.90
25280;DHT22;13225;47.804;12.116;2022-09-28T07:15:39;9.10;99.90
25280;DHT22;13225;47.804;12.116;2022-09-28T07:18:06;9.20;99.90
25280;DHT22;13225;47.804;12.116;2022-09-28T07:20:34;9.00;99.90
25280;DHT22;13225;47.804;12.116;2022-09-28T07:23:02;9.20;99.90
25280;DHT22;13225;47.804;12.116;2022-09-28T07:25:29;9.30;99.90
25280;DHT22;13225;47.804;12.116;2022-09-28T07:27:57;9.20;99.90
25280;DHT22;13225;47.804;12.116;2022-09-28T07:30:24;9.20;99.90
25280;DHT22;13225;47.804;12.116;2022-09-28T07:32:54;9.20;99.90
25280;DHT22;13225;47.804;12.116;2022-09-28T07:35:20;9.20;99.90
25280;DHT22;13225;47.804;12.116;2022-09-28T07:37:46;9.20;99.90
25280;DHT22;13225;47.804;12.116;2022-09-28T07:40:12;9.30;99.90
25280;DHT22;13225;47.804;12.116;2022-09-28T07:43:05;9.20;99.90
25280;DHT22;13225;47.804;12.116;2022-09-28T07:45:31;9.30;99.90
25280;DHT22;13225;47.804;12.116;2022-09-28T07:48:01;9.10;99.90
25280;DHT22;13225;47.804;12.116;2022-09-28T07:50:27;9.20;99.90
25280;DHT22;13225;47.804;12.116;2022-09-28T07:52:54;9.20;99.90
25280;DHT22;13225;47.804;12.116;2022-09-28T07:55:20;9.10;99.90
25280;DHT22;13225;47.804;12.116;2022-09-28T07:57:46;9.10;99.90
25280;DHT22;13225;47.804;12.116;2022-09-28T08:00:13;9.10;99.90
25280;DHT22;13225;47.804;12.116;2022-09-28T08:02:39;9.10;99.90
25280;DHT22;13225;47.804;12.116;2022-09-28T08:05:05;9.10;99.90
25280;DHT22;13225;47.804;12.116;2022-09-28T08:07:32;9.20;99.90
25280;DHT22;13225;47.804;12.116;2022-09-28T08:09:58;9.30;99.90
25280;DHT22;13225;47.804;12.116;2022-09-28T08:12:24;9.40;99.90
25280;DHT22;13225;47.804;12.116;2022-09-28T08:14:50;9.40;99.90
25280;DHT22;13225;47.804;12.116;2022-09-28T08:17:16;9.30;99.90
25280;DHT22;13225;47.804;12.116;2022-09-28T08:19:42;9.40;99.90
25280;DHT22;13225;47.804;12.116;2022-09-28T08:22:31;9.40;99.90
25280;DHT22;13225;47.804;12.116;2022-09-28T08:24:56;9.40;99.90
25280;DHT22;13225;47.804;12.116;2022-09-28T08:27:22;9.50;99.90
25280;DHT22;13225;47.804;12.116;2022-09-28T08:29:48;9.40;99.90
25280;DHT22;13225;47.804;12.116;2022-09-28T08:32:14;9.40;99.90
25280;DHT22;13225;47.804;12.116;2022-09-28T08:34:41;9.40;99.90
25280;DHT22;13225;47.804;12.116;2022-09-28T08:37:08;9.40;99.90
25280;DHT22;13225;47.804;12.116;2022-09-28T08:39:34;9.40;99.90
25280;DHT22;13225;47.804;12.116;2022-09-28T08:42:28;9.50;99.90
25280;DHT22;13225;47.804;12.116;2022-09-28T08:44:58;9.40;99.90
25280;DHT22;13225;47.804;12.116;2022-09-28T08:47:35;9.60;99.90
25280;DHT22;13225;47.804;12.116;2022-09-28T08:50:25;9.60;99.90
25280;DHT22;13225;47.804;12.116;2022-09-28T08:52:56;9.60;99.90
25280;DHT22;13225;47.804;12.116;2022-09-28T08:55:30;9.60;99.90
25280;DHT22;13225;47.804;12.116;2022-09-28T08:58:04;9.70;99.90
25280;DHT22;13225;47.804;12.116;2022-09-28T09:00:45;9.50;99.90
25280;DHT22;13225;47.804;12.116;2022-09-28T09:03:15;9.50;99.90
25280;DHT22;13225;47.804;12.116;2022-09-28T09:19:34;9.50;99.90
25280;DHT22;13225;47.804;12.116;2022-09-28T09:22:17;9.50;99.90
25280;DHT22;13225;47.804;12.116;2022-09-28T09:24:53;9.50;99.90
25280;DHT22;13225;47.804;12.116;2022-09-28T09:30:06;9.60;99.90
25280;DHT22;13225;47.804;12.116;2022-09-28T09:32:50;9.70;99.90
25280;DHT22;13225;47.804;12.116;2022-09-28T09:48:51;10.30;99.90
25280;DHT22;13225;47.804;12.116;2022-09-28T09:51:28;10.40;99.90
25280;DHT22;13225;47.804;12.116;2022-09-28T09:54:02;10.30;99.90
25280;DHT22;13225;47.804;12.116;2022-09-28T09:56:39;10.40;99.90
25280;DHT22;13225;47.804;12.116;2022-09-28T09:59:13;10.60;99.90
25280;DHT22;13225;47.804;12.116;2022-09-28T10:01:43;10.50;99.90
25280;DHT22;13225;47.804;12.116;2022-09-28T10:04:28;10.50;99.90
25280;DHT22;13225;47.804;12.116;2022-09-28T10:07:00;10.60;99.90
25280;DHT22;13225;47.804;12.116;2022-09-28T10:09:37;10.70;99.90
25280;DHT22;13225;47.804;12.116;2022-09-28T10:12:07;10.80;99.90
25280;DHT22;13225;47.804;12.116;2022-09-28T10:14:34;11.00;99.90
25280;DHT22;13225;47.804;12.116;2022-09-28T10:17:01;10.90;99.90
25280;DHT22;13225;47.804;12.116;2022-09-28T10:19:32;10.90;99.90
25280;DHT22;13225;47.804;12.116;2022-09-28T10:22:02;11.00;99.90
25280;DHT22;13225;47.804;12.116;2022-09-28T10:24:37;11.10;99.90
25280;DHT22;13225;47.804;12.116;2022-09-28T10:27:07;11.00;99.90
25280;DHT22;13225;47.804;12.116;2022-09-28T10:29:55;11.10;99.90
25280;DHT22;13225;47.804;12.116;2022-09-28T10:32:40;11.40;99.90
25280;DHT22;13225;47.804;12.116;2022-09-28T10:38:05;11.80;99.90
25280;DHT22;13225;47.804;12.116;2022-09-28T10:46:08;11.70;99.90
25280;DHT22;13225;47.804;12.116;2022-09-28T10:48:49;11.70;99.90
25280;DHT22;13225;47.804;12.116;2022-09-28T10:51:15;11.80;99.90
25280;DHT22;13225;47.804;12.116;2022-09-28T10:53:41;11.70;99.90
25280;DHT22;13225;47.804;12.116;2022-09-28T10:56:22;11.90;99.90
25280;DHT22;13225;47.804;12.116;2022-09-28T10:58:51;12.30;99.90
25280;DHT22;13225;47.804;12.116;2022-09-28T11:01:21;12.40;99.90
25280;DHT22;13225;47.804;12.116;2022-09-28T11:03:51;12.30;99.90
25280;DHT22;13225;47.804;12.116;2022-09-28T11:06:44;12.30;99.90
25280;DHT22;13225;47.804;12.116;2022-09-28T11:09:32;12.20;99.90
25280;DHT22;13225;47.804;12.116;2022-09-28T11:11:59;12.10;99.90
25280;DHT22;13225;47.804;12.116;2022-09-28T11:14:32;12.10;99.90
25280;DHT22;13225;47.804;12.116;2022-09-28T11:17:37;12.40;99.90
25280;DHT22;13225;47.804;12.116;2022-09-28T11:22:49;13.10;99.90
25280;DHT22;13225;47.804;12.116;2022-09-28T11:25:22;13.50;99.90
25280;DHT22;13225;47.804;12.116;2022-09-28T11:30:38;13.70;99.90
25280;DHT22;13225;47.804;12.116;2022-09-28T11:33:34;13.70;99.90
25280;DHT22;13225;47.804;12.116;2022-09-28T11:38:58;13.60;99.90
25280;DHT22;13225;47.804;12.116;2022-09-28T11:49:30;13.10;99.90
25280;DHT22;13225;47.804;12.116;2022-09-28T11:52:04;13.20;99.90
25280;DHT22;13225;47.804;12.116;2022-09-28T11:54:39;13.30;99.90
25280;DHT22;13225;47.804;12.116;2022-09-28T11:57:12;13.20;99.90
25280;DHT22;13225;47.804;12.116;2022-09-28T12:00:00;13.20;99.90
25280;DHT22;13225;47.804;12.116;2022-09-28T12:02:34;13.00;99.90
25280;DHT22;13225;47.804;12.116;2022-09-28T12:05:10;12.80;99.90
25280;DHT22;13225;47.804;12.116;2022-09-28T12:07:44;12.90;99.90
25280;DHT22;13225;47.804;12.116;2022-09-28T12:13:01;12.50;99.90
25280;DHT22;13225;47.804;12.116;2022-09-28T12:18:16;12.10;99.90
25280;DHT22;13225;47.804;12.116;2022-09-28T12:23:35;12.10;99.90
25280;DHT22;13225;47.804;12.116;2022-09-28T12:26:22;12.20;99.90
25280;DHT22;13225;47.804;12.116;2022-09-28T12:28:51;12.30;99.90
25280;DHT22;13225;47.804;12.116;2022-09-28T12:31:32;12.50;99.90
25280;DHT22;13225;47.804;12.116;2022-09-28T12:34:00;12.80;99.90
25280;DHT22;13225;47.804;12.116;2022-09-28T12:58:57;12.90;99.90
25280;DHT22;13225;47.804;12.116;2022-09-28T13:01:59;12.80;99.90
25280;DHT22;13225;47.804;12.116;2022-09-28T13:17:58;12.60;99.90
25280;DHT22;13225;47.804;12.116;2022-09-28T13:23:12;12.50;99.90
25280;DHT22;13225;47.804;12.116;2022-09-28T13:25:43;12.60;99.90
25280;DHT22;13225;47.804;12.116;2022-09-28T13:28:13;12.60;99.90
25280;DHT22;13225;47.804;12.116;2022-09-28T13:30:41;12.70;99.90
25280;DHT22;13225;47.804;12.116;2022-09-28T13:33:19;12.70;99.90
25280;DHT22;13225;47.804;12.116;2022-09-28T13:35:47;12.60;99.90
25280;DHT22;13225;47.804;12.116;2022-09-28T13:51:47;12.80;99.90
25280;DHT22;13225;47.804;12.116;2022-09-28T13:54:30;12.60;99.90
25280;DHT22;13225;47.804;12.116;2022-09-28T13:57:20;12.60;99.90
25280;DHT22;13225;47.804;12.116;2022-09-28T14:00:36;12.60;99.90
25280;DHT22;13225;47.804;12.116;2022-09-28T14:02:46;12.50;99.90
25280;DHT22;13225;47.804;12.116;2022-09-28T14:05:46;12.40;99.90
25280;DHT22;13225;47.804;12.116;2022-09-28T14:08:29;12.30;99.90
25280;DHT22;13225;47.804;12.116;2022-09-28T14:16:42;12.40;99.90
25280;DHT22;13225;47.804;12.116;2022-09-28T14:19:28;12.40;99.90
25280;DHT22;13225;47.804;12.116;2022-09-28T14:22:25;12.40;99.90
25280;DHT22;13225;47.804;12.116;2022-09-28T14:32:39;12.10;99.90
25280;DHT22;13225;47.804;12.116;2022-09-28T14:35:07;12.00;99.90
25280;DHT22;13225;47.804;12.116;2022-09-28T14:37:41;12.00;99.90
25280;DHT22;13225;47.804;12.116;2022-09-28T14:40:31;11.90;99.90
25280;DHT22;13225;47.804;12.116;2022-09-28T14:43:55;11.80;99.90
25280;DHT22;13225;47.804;12.116;2022-09-28T14:49:00;11.80;99.90
25280;DHT22;13225;47.804;12.116;2022-09-28T14:53:53;11.80;99.90
25280;DHT22;13225;47.804;12.116;2022-09-28T14:56:21;11.70;99.90
25280;DHT22;13225;47.804;12.116;2022-09-28T14:58:52;11.70;99.90
25280;DHT22;13225;47.804;12.116;2022-09-28T15:01:19;11.70;99.90
25280;DHT22;13225;47.804;12.116;2022-09-28T15:03:53;11.70;99.90
25280;DHT22;13225;47.804;12.116;2022-09-28T15:06:22;11.50;99.90
25280;DHT22;13225;47.804;12.116;2022-09-28T15:08:48;11.40;99.90
25280;DHT22;13225;47.804;12.116;2022-09-28T15:11:19;11.50;99.90
25280;DHT22;13225;47.804;12.116;2022-09-28T15:13:45;11.30;99.90
25280;DHT22;13225;47.804;12.116;2022-09-28T15:16:22;11.30;99.90
25280;DHT22;13225;47.804;12.116;2022-09-28T15:21:38;11.40;99.90
25280;DHT22;13225;47.804;12.116;2022-09-28T15:24:28;11.20;99.90
25280;DHT22;13225;47.804;12.116;2022-09-28T15:26:56;11.30;99.90
25280;DHT22;13225;47.804;12.116;2022-09-28T15:29:22;11.20;99.90
25280;DHT22;13225;47.804;12.116;2022-09-28T15:31:50;11.10;99.90
25280;DHT22;13225;47.804;12.116;2022-09-28T15:34:33;10.90;99.90
25280;DHT22;13225;47.804;12.116;2022-09-28T15:37:21;10.90;99.90
25280;DHT22;13225;47.804;12.116;2022-09-28T15:39:49;10.90;99.90
25280;DHT22;13225;47.804;12.116;2022-09-28T15:42:18;10.90;99.90
25280;DHT22;13225;47.804;12.116;2022-09-28T15:48:18;10.80;99.90
25280;DHT22;13225;47.804;12.116;2022-09-28T15:51:08;10.90;99.90
25280;DHT22;13225;47.804;12.116;2022-09-28T15:53:55;10.70;99.90
25280;DHT22;13225;47.804;12.116;2022-09-28T15:56:23;10.70;99.90
25280;DHT22;13225;47.804;12.116;2022-09-28T15:59:33;10.80;99.90
25280;DHT22;13225;47.804;12.116;2022-09-28T16:04:47;10.80;99.90
25280;DHT22;13225;47.804;12.116;2022-09-28T16:09:57;10.40;99.90
25280;DHT22;13225;47.804;12.116;2022-09-28T16:12:29;10.20;99.90
25280;DHT22;13225;47.804;12.116;2022-09-28T16:14:56;10.00;99.90
25280;DHT22;13225;47.804;12.116;2022-09-28T16:17:34;9.90;99.90
25280;DHT22;13225;47.804;12.116;2022-09-28T16:20:02;9.70;99.90
25280;DHT22;13225;47.804;12.116;2022-09-28T16:22:30;9.60;99.90
25280;DHT22;13225;47.804;12.116;2022-09-28T16:24:59;9.60;99.90
25280;DHT22;13225;47.804;12.116;2022-09-28T16:27:39;9.50;99.90
25280;DHT22;13225;47.804;12.116;2022-09-28T16:30:21;9.60;99.90
25280;DHT22;13225;47.804;12.116;2022-09-28T16:32:56;9.40;99.90
25280;DHT22;13225;47.804;12.116;2022-09-28T16:38:11;9.60;99.90
25280;DHT22;13225;47.804;12.116;2022-09-28T16:40:46;9.60;99.90
25280;DHT22;13225;47.804;12.116;2022-09-28T16:43:24;9.60;99.90
25280;DHT22;13225;47.804;12.116;2022-09-28T16:46:05;9.50;99.90
25280;DHT22;13225;47.804;12.116;2022-09-28T16:48:33;9.40;99.90
25280;DHT22;13225;47.804;12.116;2022-09-28T16:51:00;9.40;99.90
25280;DHT22;13225;47.804;12.116;2022-09-28T16:53:25;9.30;99.90
25280;DHT22;13225;47.804;12.116;2022-09-28T16:56:11;9.30;99.90
25280;DHT22;13225;47.804;12.116;2022-09-28T16:58:36;9.30;99.90
25280;DHT22;13225;47.804;12.116;2022-09-28T17:01:04;9.30;99.90
25280;DHT22;13225;47.804;12.116;2022-09-28T17:03:33;9.30;99.90
25280;DHT22;13225;47.804;12.116;2022-09-28T17:06:02;9.30;99.90
25280;DHT22;13225;47.804;12.116;2022-09-28T17:08:28;9.30;99.90
25280;DHT22;13225;47.804;12.116;2022-09-28T17:10:56;9.30;99.90
25280;DHT22;13225;47.804;12.116;2022-09-28T17:13:25;9.30;99.90
25280;DHT22;13225;47.804;12.116;2022-09-28T17:16:02;9.30;99.90
25280;DHT22;13225;47.804;12.116;2022-09-28T17:18:28;9.30;99.90
25280;DHT22;13225;47.804;12.116;2022-09-28T17:20:57;9.30;99.90
25280;DHT22;13225;47.804;12.116;2022-09-28T17:23:24;9.30;99.90
25280;DHT22;13225;47.804;12.116;2022-09-28T17:25:50;9.30;99.90
25280;DHT22;13225;47.804;12.116;2022-09-28T17:28:33;9.30;99.90
25280;DHT22;13225;47.804;12.116;2022-09-28T17:30:59;9.30;99.90
25280;DHT22;13225;47.804;12.116;2022-09-28T17:33:25;9.30;99.90
25280;DHT22;13225;47.804;12.116;2022-09-28T17:35:52;9.30;99.90
25280;DHT22;13225;47.804;12.116;2022-09-28T17:38:21;9.30;99.90
25280;DHT22;13225;47.804;12.116;2022-09-28T17:40:47;9.30;99.90
25280;DHT22;13225;47.804;12.116;2022-09-28T17:43:12;9.30;99.90
25280;DHT22;13225;47.804;12.116;2022-09-28T17:45:39;9.30;99.90
25280;DHT22;13225;47.804;12.116;2022-09-28T17:48:16;9.30;99.90
25280;DHT22;13225;47.804;12.116;2022-09-28T17:50:44;9.20;99.90
25280;DHT22;13225;47.804;12.116;2022-09-28T17:53:10;9.20;99.90
25280;DHT22;13225;47.804;12.116;2022-09-28T17:55:37;9.20;99.90
25280;DHT22;13225;47.804;12.116;2022-09-28T17:58:20;9.20;99.90
25280;DHT22;13225;47.804;12.116;2022-09-28T18:00:47;9.20;99.90
25280;DHT22;13225;47.804;12.116;2022-09-28T18:03:19;9.20;99.90
25280;DHT22;13225;47.804;12.116;2022-09-28T18:05:47;9.10;99.90
25280;DHT22;13225;47.804;12.116;2022-09-28T18:08:19;9.10;99.90
25280;DHT22;13225;47.804;12.116;2022-09-28T18:10:45;9.10;99.90
25280;DHT22;13225;47.804;12.116;2022-09-28T18:13:11;9.10;99.90
25280;DHT22;13225;47.804;12.116;2022-09-28T18:15:37;9.10;99.90
25280;DHT22;13225;47.804;12.116;2022-09-28T18:18:03;9.10;99.90
25280;DHT22;13225;47.804;12.116;2022-09-28T18:20:29;9.10;99.90
25280;DHT22;13225;47.804;12.116;2022-09-28T18:22:55;9.10;99.90
25280;DHT22;13225;47.804;12.116;2022-09-28T18:25:21;9.10;99.90
25280;DHT22;13225;47.804;12.116;2022-09-28T18:27:47;9.10;99.90
25280;DHT22;13225;47.804;12.116;2022-09-28T18:30:13;9.00;99.90
25280;DHT22;13225;47.804;12.116;2022-09-28T18:32:38;9.00;99.90
25280;DHT22;13225;47.804;12.116;2022-09-28T18:35:06;9.10;99.90
25280;DHT22;13225;47.804;12.116;2022-09-28T18:37:37;9.00;99.90
25280;DHT22;13225;47.804;12.116;2022-09-28T18:40:04;9.00;99.90
25280;DHT22;13225;47.804;12.116;2022-09-28T18:42:30;9.00;99.90